createdAt,value
2022-12-31T00:00:49.679Z,11.61
2022-12-31T00:03:19.574Z,11.61
2022-12-31T00:05:49.428Z,11.62
2022-12-31T00:08:19.200Z,11.62
2022-12-31T00:10:51.989Z,11.62
2022-12-31T00:13:21.925Z,11.61
2022-12-31T00:15:51.632Z,11.61
2022-12-31T00:18:21.332Z,11.59
2022-12-31T00:20:51.069Z,11.58
2022-12-31T00:23:20.813Z,11.59
2022-12-31T00:25:53.172Z,11.58
2022-12-31T00:28:22.916Z,11.58
2022-12-31T00:30:52.680Z,11.57
2022-12-31T00:33:22.592Z,11.57
2022-12-31T00:35:52.389Z,11.58
2022-12-31T00:38:22.105Z,11.58
2022-12-31T00:40:54.483Z,11.60
2022-12-31T00:43:24.207Z,11.61
2022-12-31T00:45:54.028Z,11.62
2022-12-31T00:48:24.003Z,11.63
2022-12-31T00:50:54.482Z,11.65
2022-12-31T00:53:24.486Z,11.65
2022-12-31T00:56:02.614Z,11.65
2022-12-31T00:58:32.567Z,11.66
2022-12-31T01:01:02.401Z,11.67
2022-12-31T01:03:32.287Z,11.69
2022-12-31T01:06:02.460Z,11.70
2022-12-31T01:08:32.283Z,11.72
2022-12-31T01:11:18.153Z,11.73
2022-12-31T01:13:49.049Z,11.72
2022-12-31T01:16:20.407Z,11.72
2022-12-31T01:18:50.143Z,11.73
2022-12-31T01:21:21.596Z,11.72
2022-12-31T01:23:51.323Z,11.73
2022-12-31T01:26:24.301Z,11.72
2022-12-31T01:28:54.105Z,11.73
2022-12-31T01:31:25.498Z,11.75
2022-12-31T01:33:55.961Z,11.75
2022-12-31T01:36:27.393Z,11.78
2022-12-31T01:39:00.266Z,11.78
2022-12-31T01:41:35.458Z,11.80
2022-12-31T01:44:26.328Z,11.81
2022-12-31T01:46:59.171Z,11.81
2022-12-31T01:49:34.141Z,11.82
2022-12-31T01:52:06.249Z,11.81
2022-12-31T01:54:42.467Z,11.83
2022-12-31T01:57:16.081Z,11.82
2022-12-31T01:59:47.964Z,11.84
2022-12-31T02:02:18.916Z,11.84
2022-12-31T02:04:50.024Z,11.85
2022-12-31T02:07:19.781Z,11.85
2022-12-31T02:09:49.535Z,11.84
2022-12-31T02:12:22.374Z,11.84
2022-12-31T02:14:54.882Z,11.86
2022-12-31T02:17:35.448Z,11.86
2022-12-31T02:20:34.040Z,11.86
2022-12-31T02:23:31.034Z,11.87
2022-12-31T02:26:29.355Z,11.83
2022-12-31T02:29:31.713Z,11.82
2022-12-31T02:32:08.828Z,11.78
2022-12-31T02:34:41.051Z,11.77
2022-12-31T02:37:16.260Z,11.75
2022-12-31T02:39:47.541Z,11.73
2022-12-31T02:42:17.464Z,11.72
2022-12-31T02:44:47.231Z,11.70
2022-12-31T02:47:27.277Z,11.69
2022-12-31T02:50:23.045Z,11.66
2022-12-31T02:53:01.882Z,11.64
2022-12-31T02:55:42.936Z,11.64
2022-12-31T02:58:21.728Z,11.63
2022-12-31T03:01:07.560Z,11.62
2022-12-31T03:03:41.168Z,11.61
2022-12-31T03:06:15.120Z,11.61
2022-12-31T03:08:57.805Z,11.60
2022-12-31T03:11:39.873Z,11.57
2022-12-31T03:14:09.696Z,11.56
2022-12-31T03:16:39.583Z,11.55
2022-12-31T03:19:24.408Z,11.54
2022-12-31T03:22:09.031Z,11.54
2022-12-31T03:24:51.148Z,11.51
2022-12-31T03:27:20.902Z,11.50
2022-12-31T03:29:50.654Z,11.50
2022-12-31T03:32:20.386Z,11.48
2022-12-31T03:34:52.813Z,11.49
2022-12-31T03:37:22.548Z,11.48
2022-12-31T03:39:52.292Z,11.50
2022-12-31T03:42:22.057Z,11.51
2022-12-31T03:44:51.863Z,11.50
2022-12-31T03:47:21.603Z,11.50
2022-12-31T03:49:54.277Z,11.50
2022-12-31T03:52:24.276Z,11.52
2022-12-31T03:54:54.071Z,11.50
2022-12-31T03:57:23.899Z,11.51
2022-12-31T03:59:53.763Z,11.51
2022-12-31T04:02:28.843Z,11.53
2022-12-31T04:05:01.912Z,11.53
2022-12-31T04:07:31.660Z,11.51
2022-12-31T04:10:01.420Z,11.50
2022-12-31T04:12:31.155Z,11.48
2022-12-31T04:15:00.990Z,11.48
2022-12-31T04:17:30.874Z,11.46
2022-12-31T04:20:03.288Z,11.47
2022-12-31T04:22:33.025Z,11.46
2022-12-31T04:25:02.850Z,11.43
2022-12-31T04:27:32.640Z,11.43
2022-12-31T04:30:02.377Z,11.44
2022-12-31T04:32:32.131Z,11.43
2022-12-31T04:35:04.507Z,11.43
2022-12-31T04:37:34.258Z,11.43
2022-12-31T04:40:06.732Z,11.43
2022-12-31T04:42:36.888Z,11.43
2022-12-31T04:45:07.805Z,11.43
2022-12-31T04:47:37.520Z,11.43
2022-12-31T04:50:10.658Z,11.44
2022-12-31T04:52:42.910Z,11.42
2022-12-31T04:55:13.911Z,11.43
2022-12-31T04:57:44.246Z,11.39
2022-12-31T05:00:15.096Z,11.38
2022-12-31T05:02:44.927Z,11.39
2022-12-31T05:05:17.547Z,11.39
2022-12-31T05:07:47.262Z,11.39
2022-12-31T05:10:16.979Z,11.38
2022-12-31T05:12:46.721Z,11.37
2022-12-31T05:15:16.503Z,11.35
2022-12-31T05:17:46.270Z,11.36
2022-12-31T05:20:18.645Z,11.38
2022-12-31T05:22:48.414Z,11.36
2022-12-31T05:25:18.223Z,11.36
2022-12-31T05:27:48.013Z,11.36
2022-12-31T05:30:18.730Z,11.36
2022-12-31T05:32:48.710Z,11.36
2022-12-31T05:35:21.523Z,11.35
2022-12-31T05:37:51.248Z,11.33
2022-12-31T05:40:21.192Z,11.34
2022-12-31T05:42:52.143Z,11.34
2022-12-31T05:45:26.819Z,11.34
2022-12-31T05:48:00.015Z,11.33
2022-12-31T05:50:32.400Z,11.33
2022-12-31T05:53:02.139Z,11.34
2022-12-31T05:55:31.902Z,11.34
2022-12-31T05:58:01.637Z,11.34
2022-12-31T06:00:31.367Z,11.35
2022-12-31T06:03:01.182Z,11.35
2022-12-31T06:05:33.648Z,11.35
2022-12-31T06:08:03.338Z,11.32
2022-12-31T06:10:33.104Z,11.32
2022-12-31T06:13:02.898Z,11.29
2022-12-31T06:15:32.655Z,11.26
2022-12-31T06:18:02.487Z,11.23
2022-12-31T06:20:34.934Z,11.18
2022-12-31T06:23:04.681Z,11.14
2022-12-31T06:25:34.408Z,11.07
2022-12-31T06:28:04.144Z,11.05
2022-12-31T06:30:34.223Z,11.02
2022-12-31T06:33:04.046Z,10.99
2022-12-31T06:35:36.499Z,10.99
2022-12-31T06:38:06.292Z,10.99
2022-12-31T06:40:36.153Z,10.98
2022-12-31T06:43:05.939Z,10.96
2022-12-31T06:45:35.673Z,10.97
2022-12-31T06:48:05.454Z,10.98
2022-12-31T06:50:37.886Z,10.98
2022-12-31T06:53:07.650Z,11.01
2022-12-31T06:55:38.158Z,11.04
2022-12-31T06:58:08.813Z,11.08
2022-12-31T07:00:39.125Z,11.10
2022-12-31T07:03:29.647Z,11.13
2022-12-31T07:06:10.305Z,11.15
2022-12-31T07:08:50.038Z,11.17
2022-12-31T07:11:25.090Z,11.17
2022-12-31T07:14:14.356Z,11.17
2022-12-31T07:16:58.839Z,11.18
2022-12-31T07:19:38.387Z,11.17
2022-12-31T07:22:15.965Z,11.16
2022-12-31T07:24:46.506Z,11.15
2022-12-31T07:27:44.226Z,11.15
2022-12-31T07:30:18.809Z,11.14
2022-12-31T07:33:12.491Z,11.14
2022-12-31T07:35:51.455Z,11.15
2022-12-31T07:38:32.662Z,11.14
2022-12-31T07:41:12.662Z,11.13
2022-12-31T07:43:56.023Z,11.13
2022-12-31T07:46:31.698Z,11.15
2022-12-31T07:49:02.092Z,11.17
2022-12-31T07:51:32.479Z,11.20
2022-12-31T07:54:10.173Z,11.23
2022-12-31T07:56:43.950Z,11.26
2022-12-31T07:59:24.888Z,11.27
2022-12-31T08:02:02.752Z,11.27
2022-12-31T08:04:43.403Z,11.30
2022-12-31T08:07:23.869Z,11.30
2022-12-31T08:10:05.254Z,11.32
2022-12-31T08:12:37.927Z,11.32
2022-12-31T08:15:16.231Z,11.33
2022-12-31T08:17:46.904Z,11.32
2022-12-31T08:20:17.701Z,11.32
2022-12-31T08:23:14.318Z,11.33
2022-12-31T08:26:02.248Z,11.33
2022-12-31T08:28:49.803Z,11.35
2022-12-31T08:31:22.888Z,11.36
2022-12-31T08:34:05.471Z,11.35
2022-12-31T08:36:43.336Z,11.36
2022-12-31T08:39:26.095Z,11.38
2022-12-31T08:42:01.299Z,11.39
2022-12-31T08:44:39.415Z,11.40
2022-12-31T08:47:19.990Z,11.41
2022-12-31T08:49:50.344Z,11.41
2022-12-31T08:52:26.449Z,11.43
2022-12-31T08:54:57.294Z,11.43
2022-12-31T08:57:38.025Z,11.44
2022-12-31T09:00:12.352Z,11.46
2022-12-31T09:03:02.142Z,11.49
2022-12-31T09:05:38.112Z,11.51
2022-12-31T09:08:19.657Z,11.54
2022-12-31T09:10:56.952Z,11.57
2022-12-31T09:13:39.140Z,11.60
2022-12-31T09:16:16.820Z,11.63
2022-12-31T09:18:46.767Z,11.69
2022-12-31T09:21:18.356Z,11.75
2022-12-31T09:23:48.791Z,11.81
2022-12-31T09:26:34.107Z,11.86
2022-12-31T09:29:18.194Z,11.91
2022-12-31T09:31:55.698Z,11.99
2022-12-31T09:34:31.380Z,12.07
2022-12-31T09:37:08.553Z,12.12
2022-12-31T09:39:44.948Z,12.17
2022-12-31T09:42:56.789Z,12.25
2022-12-31T09:45:51.236Z,12.30
2022-12-31T09:48:54.015Z,12.36
2022-12-31T09:51:33.921Z,12.39
2022-12-31T09:54:22.840Z,12.42
2022-12-31T09:57:07.939Z,12.47
2022-12-31T09:59:43.298Z,12.48
2022-12-31T10:02:26.805Z,12.49
2022-12-31T10:05:11.578Z,12.53
2022-12-31T10:07:53.888Z,12.55
2022-12-31T10:10:30.038Z,12.58
2022-12-31T10:13:30.706Z,12.61
2022-12-31T10:16:17.390Z,12.63
2022-12-31T10:19:24.694Z,12.66
2022-12-31T10:22:06.780Z,12.70
2022-12-31T10:25:00.879Z,12.72
2022-12-31T10:27:41.794Z,12.74
2022-12-31T10:30:18.041Z,12.75
2022-12-31T10:33:01.861Z,12.76
2022-12-31T10:35:43.910Z,12.78
2022-12-31T10:38:30.120Z,12.80
2022-12-31T10:41:50.366Z,12.82
2022-12-31T10:44:49.090Z,12.81
2022-12-31T10:47:48.587Z,12.82
2022-12-31T10:50:48.090Z,12.84
2022-12-31T10:53:56.562Z,12.86
2022-12-31T10:57:09.502Z,12.88
2022-12-31T11:00:09.285Z,12.96
2022-12-31T11:03:12.739Z,13.02
2022-12-31T11:06:12.430Z,13.07
2022-12-31T11:09:16.455Z,13.14
2022-12-31T11:11:56.084Z,13.18
2022-12-31T11:14:52.821Z,13.27
2022-12-31T11:17:37.616Z,13.30
2022-12-31T11:20:26.220Z,13.34
2022-12-31T11:23:13.288Z,13.35
2022-12-31T11:25:52.725Z,13.38
2022-12-31T11:28:43.048Z,13.39
2022-12-31T11:31:22.836Z,13.39
2022-12-31T11:34:05.124Z,13.39
2022-12-31T11:36:43.508Z,13.39
2022-12-31T11:39:37.496Z,13.41
2022-12-31T11:42:22.102Z,13.44
2022-12-31T11:45:02.459Z,13.41
2022-12-31T11:48:28.573Z,13.41
2022-12-31T11:50:51.713Z,13.39
2022-12-31T11:53:44.530Z,13.41
2022-12-31T11:56:20.051Z,13.42
2022-12-31T11:58:52.498Z,13.43
2022-12-31T12:01:29.810Z,13.45
2022-12-31T12:03:59.620Z,13.44
2022-12-31T12:06:34.046Z,13.45
2022-12-31T12:09:09.114Z,13.49
2022-12-31T12:11:41.818Z,13.49
2022-12-31T12:14:22.694Z,13.52
2022-12-31T12:17:04.806Z,13.52
2022-12-31T12:19:36.733Z,13.51
2022-12-31T12:22:14.005Z,13.54
2022-12-31T12:24:56.570Z,13.55
2022-12-31T12:27:30.743Z,13.55
2022-12-31T12:30:00.487Z,13.55
2022-12-31T12:32:32.842Z,13.57
2022-12-31T12:35:02.798Z,13.57
2022-12-31T12:37:36.258Z,13.57
2022-12-31T12:40:09.828Z,13.56
2022-12-31T12:42:48.934Z,13.56
2022-12-31T12:45:20.834Z,13.59
2022-12-31T12:47:58.810Z,13.56
2022-12-31T12:50:39.562Z,13.53
2022-12-31T12:53:34.844Z,13.51
2022-12-31T12:56:15.158Z,13.50
2022-12-31T12:58:55.203Z,13.51
2022-12-31T13:01:35.022Z,13.51
2022-12-31T13:04:41.095Z,13.49
2022-12-31T13:07:27.226Z,13.46
2022-12-31T13:10:17.963Z,13.47
2022-12-31T13:15:55.787Z,13.46
2022-12-31T13:18:40.800Z,13.48
2022-12-31T13:21:32.699Z,13.47
2022-12-31T13:24:13.094Z,13.45
2022-12-31T13:26:50.326Z,13.45
2022-12-31T13:29:25.049Z,13.44
2022-12-31T13:31:57.573Z,13.45
2022-12-31T13:34:31.677Z,13.43
2022-12-31T13:37:09.637Z,13.47
2022-12-31T13:39:43.193Z,13.46
2022-12-31T13:42:23.649Z,13.46
2022-12-31T13:44:59.032Z,13.45
2022-12-31T13:47:36.238Z,13.44
2022-12-31T13:50:14.698Z,13.40
2022-12-31T13:52:51.676Z,13.36
2022-12-31T13:55:25.799Z,13.35
2022-12-31T13:57:59.369Z,13.32
2022-12-31T14:00:32.940Z,13.29
2022-12-31T14:03:12.856Z,13.27
2022-12-31T14:05:50.626Z,13.22
2022-12-31T14:08:22.954Z,13.19
2022-12-31T14:11:05.208Z,13.16
2022-12-31T14:13:54.204Z,13.10
2022-12-31T14:16:29.349Z,13.09
2022-12-31T14:19:07.679Z,13.06
2022-12-31T14:21:44.216Z,13.05
2022-12-31T14:24:21.725Z,13.03
2022-12-31T14:26:55.501Z,13.03
2022-12-31T14:29:34.814Z,13.06
2022-12-31T14:32:29.876Z,13.06
2022-12-31T14:35:16.641Z,13.05
2022-12-31T14:37:55.291Z,13.06
2022-12-31T14:40:33.059Z,13.11
2022-12-31T14:43:16.171Z,13.13
2022-12-31T14:45:59.241Z,13.13
2022-12-31T14:48:39.423Z,13.14
2022-12-31T14:51:09.747Z,13.16
2022-12-31T14:53:39.571Z,13.17
2022-12-31T14:56:43.211Z,13.19
2022-12-31T14:59:29.796Z,13.19
2022-12-31T15:02:00.900Z,13.17
2022-12-31T15:04:34.924Z,13.17
2022-12-31T15:07:13.961Z,13.14
2022-12-31T15:09:54.122Z,13.14
2022-12-31T15:12:44.935Z,13.11
2022-12-31T15:15:33.547Z,13.09
2022-12-31T15:18:20.087Z,13.07
2022-12-31T15:21:17.736Z,13.04
2022-12-31T15:23:49.778Z,13.02
2022-12-31T15:26:25.967Z,13.02
2022-12-31T15:29:08.231Z,13.01
2022-12-31T15:31:39.454Z,12.96
2022-12-31T15:34:24.352Z,12.94
2022-12-31T15:36:56.886Z,12.94
2022-12-31T15:39:30.403Z,12.92
2022-12-31T15:42:36.780Z,12.90
2022-12-31T15:44:59.545Z,12.89
2022-12-31T15:47:32.482Z,12.87
2022-12-31T15:50:05.307Z,12.86
2022-12-31T15:52:42.954Z,12.85
2022-12-31T15:55:24.943Z,12.85
2022-12-31T15:57:57.210Z,12.81
2022-12-31T16:00:40.692Z,12.78
2022-12-31T16:03:23.922Z,12.77
2022-12-31T16:05:55.703Z,12.76
2022-12-31T16:08:28.508Z,12.76
2022-12-31T16:10:58.923Z,12.75
2022-12-31T16:13:32.378Z,12.78
2022-12-31T16:16:08.488Z,12.78
2022-12-31T16:18:42.161Z,12.78
2022-12-31T16:21:27.056Z,12.80
2022-12-31T16:23:59.004Z,12.80
2022-12-31T16:26:34.523Z,12.80
2022-12-31T16:29:05.426Z,12.81
2022-12-31T16:31:38.005Z,12.83
2022-12-31T16:34:14.557Z,12.86
2022-12-31T16:36:44.767Z,12.86
2022-12-31T16:39:33.942Z,12.87
2022-12-31T16:42:21.775Z,12.87
2022-12-31T16:44:52.927Z,12.86
2022-12-31T16:47:28.834Z,12.88
2022-12-31T16:50:05.555Z,12.90
2022-12-31T16:52:38.555Z,12.89
2022-12-31T16:55:11.089Z,12.90
2022-12-31T16:57:43.452Z,12.92
2022-12-31T17:00:20.904Z,12.93
2022-12-31T17:03:02.523Z,12.93
2022-12-31T17:05:32.744Z,12.93
2022-12-31T17:08:22.567Z,12.93
2022-12-31T17:10:52.279Z,12.91
2022-12-31T17:13:37.462Z,12.93
2022-12-31T17:16:07.812Z,12.93
2022-12-31T17:18:41.908Z,12.95
2022-12-31T17:21:13.423Z,12.96
2022-12-31T17:23:44.816Z,12.97
2022-12-31T17:26:16.507Z,12.97
2022-12-31T17:28:48.517Z,12.99
2022-12-31T17:31:37.577Z,13.02
2022-12-31T17:34:24.242Z,13.01
2022-12-31T17:37:05.269Z,13.03
2022-12-31T17:39:52.370Z,13.03
2022-12-31T17:42:32.729Z,13.04
2022-12-31T17:45:04.464Z,13.02
2022-12-31T17:47:37.734Z,13.05
2022-12-31T17:50:25.128Z,13.04
2022-12-31T17:52:58.677Z,13.06
2022-12-31T17:55:28.436Z,13.08
2022-12-31T17:58:00.780Z,13.12
2022-12-31T18:00:30.655Z,13.12
2022-12-31T18:03:00.524Z,13.16
2022-12-31T18:05:32.948Z,13.16
2022-12-31T18:08:02.710Z,13.18
2022-12-31T18:10:37.233Z,13.19
2022-12-31T18:13:08.549Z,13.20
2022-12-31T18:15:38.315Z,13.21
2022-12-31T18:18:24.520Z,13.22
2022-12-31T18:21:01.475Z,13.20
2022-12-31T18:23:34.191Z,13.21
2022-12-31T18:26:03.913Z,13.21
2022-12-31T18:28:34.031Z,13.23
2022-12-31T18:31:03.929Z,13.23
2022-12-31T18:33:33.755Z,13.26
2022-12-31T18:36:09.318Z,13.26
2022-12-31T18:38:40.027Z,13.27
2022-12-31T18:41:11.350Z,13.28
2022-12-31T18:43:41.043Z,13.30
2022-12-31T18:46:13.973Z,13.30
2022-12-31T18:48:44.418Z,13.29
2022-12-31T18:51:20.680Z,13.31
2022-12-31T18:53:51.093Z,13.32
2022-12-31T18:56:22.580Z,13.33
2022-12-31T18:58:52.482Z,13.34
2022-12-31T19:01:30.856Z,13.37
2022-12-31T19:04:02.775Z,13.37
2022-12-31T19:06:35.134Z,13.37
2022-12-31T19:09:13.232Z,13.39
2022-12-31T19:11:54.598Z,13.39
2022-12-31T19:14:26.819Z,13.41
2022-12-31T19:19:28.938Z,13.44
2022-12-31T19:22:01.311Z,13.48
2022-12-31T19:24:31.274Z,13.50
2022-12-31T19:27:01.165Z,13.52
2022-12-31T19:29:31.350Z,13.54
2022-12-31T19:32:02.483Z,13.58
2022-12-31T19:34:32.479Z,13.61
2022-12-31T19:37:04.853Z,13.62
2022-12-31T19:39:34.581Z,13.67
2022-12-31T19:42:04.322Z,13.70
2022-12-31T19:44:34.094Z,13.71
2022-12-31T19:47:04.078Z,13.73
2022-12-31T19:49:33.808Z,13.73
2022-12-31T19:52:06.382Z,13.75
2022-12-31T19:54:36.170Z,13.74
2022-12-31T19:57:05.958Z,13.76
2022-12-31T19:59:35.716Z,13.75
2022-12-31T20:02:05.870Z,13.79
2022-12-31T20:04:35.665Z,13.81
2022-12-31T20:07:08.151Z,13.85
2022-12-31T20:09:37.942Z,13.89
2022-12-31T20:12:08.082Z,13.91
2022-12-31T20:14:37.843Z,13.93
2022-12-31T20:17:07.670Z,13.95
2022-12-31T20:19:37.619Z,13.96
2022-12-31T20:22:09.978Z,13.96
2022-12-31T20:24:39.737Z,13.97
2022-12-31T20:27:16.538Z,14.00
2022-12-31T20:29:48.567Z,14.01
2022-12-31T20:32:18.311Z,14.02
2022-12-31T20:34:48.018Z,14.03
2022-12-31T20:37:20.454Z,14.05
2022-12-31T20:39:50.255Z,14.07
2022-12-31T20:42:20.044Z,14.10
2022-12-31T20:44:49.846Z,14.08
2022-12-31T20:47:19.634Z,14.08
2022-12-31T20:52:41.792Z,14.07
2022-12-31T20:55:13.871Z,14.05
2022-12-31T20:57:43.754Z,14.04
2022-12-31T21:00:15.053Z,14.04
2022-12-31T21:02:50.983Z,14.00
2022-12-31T21:05:24.274Z,13.98
2022-12-31T21:07:56.901Z,13.97
2022-12-31T21:10:26.845Z,13.95
2022-12-31T21:12:53.983Z,13.91
2022-12-31T21:15:24.262Z,13.87
2022-12-31T21:17:54.026Z,13.84
2022-12-31T21:20:23.811Z,13.82
2022-12-31T21:22:56.177Z,13.75
2022-12-31T21:25:25.933Z,13.70
2022-12-31T21:27:55.691Z,13.66
2022-12-31T21:30:25.490Z,13.61
2022-12-31T21:32:55.242Z,13.60
2022-12-31T21:35:42.661Z,13.58
2022-12-31T21:38:16.045Z,13.52
2022-12-31T21:40:45.930Z,13.48
2022-12-31T21:43:16.786Z,13.44
2022-12-31T21:45:46.681Z,13.41
2022-12-31T21:48:21.489Z,13.39
2022-12-31T21:50:53.123Z,13.34
2022-12-31T21:53:35.984Z,13.32
2022-12-31T21:56:14.625Z,13.30
2022-12-31T21:58:46.238Z,13.30
2022-12-31T22:01:33.601Z,13.29
2022-12-31T22:04:03.469Z,13.30
2022-12-31T22:06:34.320Z,13.30
2022-12-31T22:09:06.877Z,13.29
2022-12-31T22:11:36.654Z,13.31
2022-12-31T22:14:06.367Z,13.32
2022-12-31T22:16:36.162Z,13.34
2022-12-31T22:19:05.951Z,13.37
2022-12-31T22:21:35.759Z,13.38
2022-12-31T22:24:08.900Z,13.39
2022-12-31T22:26:44.541Z,13.39
2022-12-31T22:29:16.262Z,13.40
2022-12-31T22:31:46.038Z,13.40
2022-12-31T22:34:15.923Z,13.41
2022-12-31T22:36:45.693Z,13.43
2022-12-31T22:39:44.618Z,13.44
2022-12-31T22:42:09.328Z,13.45
2022-12-31T22:44:39.120Z,13.46
2022-12-31T22:47:08.901Z,13.47
2022-12-31T22:49:38.672Z,13.48
2022-12-31T22:52:08.957Z,13.50
2022-12-31T22:54:41.563Z,13.51
2022-12-31T22:57:17.811Z,13.52
2022-12-31T22:59:49.789Z,13.53
2022-12-31T23:02:22.495Z,13.53
2022-12-31T23:04:52.371Z,13.53
2022-12-31T23:07:42.038Z,13.55
2022-12-31T23:10:30.277Z,13.57
2022-12-31T23:13:21.698Z,13.60
2022-12-31T23:16:03.903Z,13.64
2022-12-31T23:18:46.134Z,13.65
2022-12-31T23:21:29.746Z,13.66
2022-12-31T23:23:59.678Z,13.67
2022-12-31T23:26:42.089Z,13.70
2022-12-31T23:29:13.014Z,13.70
2022-12-31T23:31:42.865Z,13.70
2022-12-31T23:34:12.845Z,13.70
2022-12-31T23:36:42.570Z,13.72
2022-12-31T23:39:13.569Z,13.70
2022-12-31T23:41:45.904Z,13.69
2022-12-31T23:44:15.637Z,13.70
2022-12-31T23:46:46.087Z,13.70
2022-12-31T23:49:15.829Z,13.70
2022-12-31T23:51:45.767Z,13.72
2022-12-31T23:54:16.004Z,13.71
2022-12-31T23:56:48.367Z,13.71
2022-12-31T23:59:18.570Z,13.70
